createdAt,value
2019-06-10T00:00:16.259Z,17.00
2019-06-10T00:02:59.782Z,17.00
2019-06-10T00:05:41.804Z,17.00
2019-06-10T00:08:24.001Z,17.00
2019-06-10T00:10:54.680Z,16.90
2019-06-10T00:13:26.670Z,16.90
2019-06-10T00:15:56.970Z,16.90
2019-06-10T00:18:38.381Z,16.80
2019-06-10T00:21:01.955Z,16.80
2019-06-10T00:23:31.996Z,16.70
2019-06-10T00:26:06.103Z,16.70
2019-06-10T00:28:35.547Z,16.60
2019-06-10T00:31:06.902Z,16.60
2019-06-10T00:33:43.688Z,16.60
2019-06-10T00:36:14.127Z,16.50
2019-06-10T00:38:44.290Z,16.50
2019-06-10T00:41:14.845Z,16.40
2019-06-10T00:43:45.147Z,16.40
2019-06-10T00:46:15.223Z,16.40
2019-06-10T00:48:47.893Z,16.30
2019-06-10T00:51:18.159Z,16.30
2019-06-10T00:53:51.150Z,16.20
2019-06-10T00:56:21.536Z,16.10
2019-06-10T00:58:52.097Z,16.10
2019-06-10T01:01:22.452Z,16.10
2019-06-10T01:03:53.095Z,16.00
2019-06-10T01:06:23.562Z,16.00
2019-06-10T01:08:54.096Z,16.00
2019-06-10T01:11:27.182Z,15.90
2019-06-10T01:13:56.591Z,15.90
2019-06-10T01:16:27.069Z,15.90
2019-06-10T01:18:57.739Z,15.90
2019-06-10T01:21:31.814Z,15.80
2019-06-10T01:24:02.886Z,15.80
2019-06-10T01:26:33.378Z,15.80
2019-06-10T01:29:03.451Z,15.80
2019-06-10T01:31:33.675Z,15.80
2019-06-10T01:34:05.444Z,15.70
2019-06-10T01:36:35.838Z,15.70
2019-06-10T01:39:07.551Z,15.70
2019-06-10T01:41:37.921Z,15.70
2019-06-10T01:44:08.551Z,15.70
2019-06-10T01:46:41.047Z,15.60
2019-06-10T01:49:13.223Z,15.60
2019-06-10T01:51:43.945Z,15.60
2019-06-10T01:54:15.576Z,15.60
2019-06-10T01:56:46.139Z,15.50
2019-06-10T01:59:16.977Z,15.50
2019-06-10T02:02:03.424Z,15.40
2019-06-10T02:04:33.702Z,15.40
2019-06-10T02:07:04.147Z,15.30
2019-06-10T02:09:35.233Z,15.30
2019-06-10T02:12:09.311Z,15.30
2019-06-10T02:14:41.628Z,15.20
2019-06-10T02:17:17.302Z,15.20
2019-06-10T02:19:47.593Z,15.20
2019-06-10T02:22:35.101Z,15.10
2019-06-10T02:25:14.003Z,15.10
2019-06-10T02:27:50.781Z,15.00
2019-06-10T02:30:44.286Z,15.00
2019-06-10T02:33:03.770Z,15.00
2019-06-10T02:36:03.972Z,15.00
2019-06-10T02:38:39.593Z,14.90
2019-06-10T02:41:09.272Z,14.90
2019-06-10T02:43:43.817Z,14.80
2019-06-10T02:46:13.640Z,14.80
2019-06-10T02:48:44.802Z,14.70
2019-06-10T02:51:17.673Z,14.70
2019-06-10T02:53:47.294Z,14.70
2019-06-10T02:56:19.443Z,14.70
2019-06-10T02:58:49.349Z,14.60
2019-06-10T03:01:21.963Z,14.60
2019-06-10T03:03:54.374Z,14.50
2019-06-10T03:06:31.873Z,14.50
2019-06-10T03:08:55.792Z,14.50
2019-06-10T03:11:28.091Z,14.40
2019-06-10T03:13:57.781Z,14.30
2019-06-10T03:16:35.860Z,14.30
2019-06-10T03:19:06.668Z,14.30
2019-06-10T03:21:38.128Z,14.30
2019-06-10T03:24:08.591Z,14.30
2019-06-10T03:26:39.323Z,14.40
2019-06-10T03:29:09.546Z,14.40
2019-06-10T03:31:43.149Z,14.40
2019-06-10T03:34:14.706Z,14.40
2019-06-10T03:36:43.838Z,14.40
2019-06-10T03:39:13.967Z,14.40
2019-06-10T03:41:44.169Z,14.50
2019-06-10T03:44:15.074Z,14.50
2019-06-10T03:46:45.507Z,14.50
2019-06-10T03:49:17.054Z,14.50
2019-06-10T03:51:47.997Z,14.50
2019-06-10T03:54:19.246Z,14.60
2019-06-10T03:56:51.950Z,14.60
2019-06-10T03:59:24.663Z,14.60
2019-06-10T04:01:57.282Z,14.60
2019-06-10T04:04:28.363Z,14.70
2019-06-10T04:06:58.616Z,14.70
2019-06-10T04:09:29.288Z,14.70
2019-06-10T04:12:01.921Z,14.70
2019-06-10T04:14:34.686Z,14.70
2019-06-10T04:17:05.438Z,14.80
2019-06-10T04:19:36.158Z,14.80
2019-06-10T04:22:06.616Z,14.80
2019-06-10T04:24:36.956Z,14.80
2019-06-10T04:27:07.179Z,14.80
2019-06-10T04:29:38.178Z,14.80
2019-06-10T04:32:09.041Z,14.80
2019-06-10T04:34:39.317Z,14.80
2019-06-10T04:37:12.334Z,14.80
2019-06-10T04:39:42.747Z,14.80
2019-06-10T04:42:13.040Z,14.90
2019-06-10T04:44:43.450Z,15.00
2019-06-10T04:47:13.739Z,15.10
2019-06-10T04:49:44.523Z,15.10
2019-06-10T04:52:14.662Z,15.20
2019-06-10T04:54:44.848Z,15.20
2019-06-10T04:57:15.137Z,15.30
2019-06-10T04:59:45.727Z,15.40
2019-06-10T05:02:16.211Z,15.40
2019-06-10T05:04:46.608Z,15.50
2019-06-10T05:07:16.970Z,15.50
2019-06-10T05:09:47.355Z,15.40
2019-06-10T05:12:19.223Z,15.40
2019-06-10T05:14:49.407Z,15.40
2019-06-10T05:17:21.492Z,15.40
2019-06-10T05:19:54.733Z,15.50
2019-06-10T05:22:28.504Z,15.50
2019-06-10T05:24:59.233Z,15.50
2019-06-10T05:27:30.840Z,15.60
2019-06-10T05:30:02.421Z,15.70
2019-06-10T05:32:33.561Z,15.70
2019-06-10T05:35:04.673Z,15.80
2019-06-10T05:37:35.631Z,15.80
2019-06-10T05:40:07.007Z,15.80
2019-06-10T05:42:37.099Z,15.80
2019-06-10T05:45:09.040Z,15.80
2019-06-10T05:47:39.642Z,15.90
2019-06-10T05:50:12.759Z,15.90
2019-06-10T05:52:42.716Z,16.00
2019-06-10T05:55:13.023Z,16.00
2019-06-10T05:57:43.573Z,16.10
2019-06-10T06:00:14.977Z,16.20
2019-06-10T06:02:45.728Z,16.30
2019-06-10T06:05:16.436Z,16.30
2019-06-10T06:08:01.286Z,16.40
2019-06-10T06:10:22.126Z,16.50
2019-06-10T06:12:52.643Z,16.60
2019-06-10T06:15:23.921Z,16.70
2019-06-10T06:18:06.528Z,16.70
2019-06-10T06:20:34.086Z,16.80
2019-06-10T06:23:03.893Z,16.90
2019-06-10T06:25:39.782Z,17.00
2019-06-10T06:28:07.871Z,17.10
2019-06-10T06:30:38.877Z,17.20
2019-06-10T06:33:10.375Z,17.30
2019-06-10T06:35:43.678Z,17.40
2019-06-10T06:38:13.128Z,17.40
2019-06-10T06:40:43.594Z,17.40
2019-06-10T06:43:13.806Z,17.40
2019-06-10T06:45:48.627Z,17.50
2019-06-10T06:48:18.786Z,17.60
2019-06-10T06:51:01.862Z,17.60
2019-06-10T06:53:32.426Z,17.50
2019-06-10T06:55:55.982Z,17.50
2019-06-10T06:58:33.471Z,17.60
2019-06-10T07:01:10.556Z,17.70
2019-06-10T07:03:38.588Z,17.80
2019-06-10T07:06:13.189Z,17.80
2019-06-10T07:09:03.358Z,17.90
2019-06-10T07:11:27.459Z,17.90
2019-06-10T07:13:59.011Z,18.00
2019-06-10T07:16:34.516Z,18.10
2019-06-10T07:19:13.205Z,18.20
2019-06-10T07:22:02.736Z,18.30
2019-06-10T07:24:24.111Z,18.30
2019-06-10T07:26:57.516Z,18.30
2019-06-10T07:29:32.819Z,18.30
2019-06-10T07:32:05.867Z,18.40
2019-06-10T07:34:37.119Z,18.40
2019-06-10T07:37:08.286Z,18.50
2019-06-10T07:39:39.608Z,18.50
2019-06-10T07:42:13.483Z,18.50
2019-06-10T07:45:06.181Z,18.50
2019-06-10T07:47:39.113Z,18.50
2019-06-10T07:50:22.715Z,18.50
2019-06-10T07:52:55.828Z,18.60
2019-06-10T07:55:34.680Z,18.80
2019-06-10T07:58:22.296Z,18.90
2019-06-10T08:01:02.606Z,19.00
2019-06-10T08:03:38.288Z,19.00
2019-06-10T08:06:24.336Z,19.10
2019-06-10T08:08:56.684Z,19.20
2019-06-10T08:11:29.632Z,19.30
2019-06-10T08:14:06.448Z,19.20
2019-06-10T08:16:44.238Z,19.20
2019-06-10T08:19:30.253Z,19.10
2019-06-10T08:21:49.546Z,19.20
2019-06-10T08:24:23.454Z,19.30
2019-06-10T08:26:59.062Z,19.40
2019-06-10T08:29:29.801Z,19.60
2019-06-10T08:32:07.336Z,19.80
2019-06-10T08:34:47.915Z,19.80
2019-06-10T08:37:33.260Z,19.80
2019-06-10T08:40:16.919Z,19.90
2019-06-10T08:42:55.529Z,20.10
2019-06-10T08:45:26.684Z,20.30
2019-06-10T08:47:57.457Z,20.60
2019-06-10T08:50:33.637Z,20.90
2019-06-10T08:53:14.640Z,21.10
2019-06-10T08:55:46.625Z,21.10
2019-06-10T08:58:51.627Z,21.30
2019-06-10T09:01:33.392Z,21.40
2019-06-10T09:04:18.343Z,21.30
2019-06-10T09:06:55.493Z,21.40
2019-06-10T09:09:36.153Z,21.40
2019-06-10T09:12:33.293Z,21.60
2019-06-10T09:15:14.193Z,21.70
2019-06-10T09:18:23.220Z,21.90
2019-06-10T09:21:12.708Z,21.90
2019-06-10T09:24:08.510Z,21.90
2019-06-10T09:26:50.170Z,21.90
2019-06-10T09:29:25.782Z,21.80
2019-06-10T09:32:03.705Z,21.70
2019-06-10T09:34:43.069Z,21.70
2019-06-10T09:37:26.547Z,21.80
2019-06-10T09:39:59.566Z,21.90
2019-06-10T09:42:33.303Z,22.00
2019-06-10T09:45:19.356Z,22.00
2019-06-10T09:48:12.993Z,22.00
2019-06-10T09:50:50.962Z,22.10
2019-06-10T09:53:30.164Z,22.10
2019-06-10T09:55:55.412Z,22.00
2019-06-10T09:58:32.682Z,22.00
2019-06-10T10:01:19.307Z,22.00
2019-06-10T10:04:00.747Z,22.10
2019-06-10T10:06:38.136Z,22.30
2019-06-10T10:09:33.651Z,22.40
2019-06-10T10:12:12.246Z,22.30
2019-06-10T10:14:56.253Z,22.30
2019-06-10T10:17:26.368Z,22.40
2019-06-10T10:20:07.473Z,22.40
2019-06-10T10:22:55.368Z,22.40
2019-06-10T10:25:26.588Z,22.40
2019-06-10T10:28:03.560Z,22.40
2019-06-10T10:30:52.721Z,22.60
2019-06-10T10:33:29.021Z,22.60
2019-06-10T10:36:29.332Z,22.70
2019-06-10T10:43:34.267Z,22.80
2019-06-10T10:49:42.838Z,23.30
2019-06-10T10:52:13.788Z,23.50
2019-06-10T10:54:45.067Z,23.50
2019-06-10T10:57:16.356Z,23.60
2019-06-10T10:59:49.506Z,23.70
2019-06-10T11:02:32.057Z,23.90
2019-06-10T11:05:12.871Z,23.90
2019-06-10T11:07:49.842Z,23.80
2019-06-10T11:14:33.544Z,23.90
2019-06-10T11:17:05.234Z,23.60
2019-06-10T11:23:25.396Z,23.60
2019-06-10T11:26:12.487Z,23.60
2019-06-10T11:31:53.659Z,23.80
2019-06-10T11:35:23.499Z,23.90
2019-06-10T11:38:03.294Z,24.20
2019-06-10T11:40:58.539Z,24.30
2019-06-10T11:43:46.761Z,24.40
2019-06-10T11:46:27.442Z,24.60
2019-06-10T11:48:59.309Z,25.00
2019-06-10T11:51:47.627Z,25.10
2019-06-10T11:54:23.420Z,25.20
2019-06-10T11:57:08.269Z,25.00
2019-06-10T11:59:43.468Z,25.00
2019-06-10T12:02:27.425Z,25.20
2019-06-10T12:05:04.126Z,25.20
2019-06-10T12:07:37.699Z,25.30
2019-06-10T12:10:33.072Z,25.50
2019-06-10T12:13:09.934Z,25.50
2019-06-10T12:16:25.568Z,25.70
2019-06-10T12:18:28.735Z,25.70
2019-06-10T12:24:42.985Z,25.90
2019-06-10T12:27:14.445Z,25.90
2019-06-10T12:29:45.278Z,25.90
2019-06-10T12:32:17.281Z,25.90
2019-06-10T12:38:32.532Z,26.00
2019-06-10T12:41:14.069Z,26.20
2019-06-10T12:43:48.759Z,26.30
2019-06-10T12:47:22.775Z,26.30
2019-06-10T12:49:56.191Z,26.40
2019-06-10T12:56:11.302Z,26.10
2019-06-10T12:59:47.653Z,26.10
2019-06-10T13:02:32.204Z,26.00
2019-06-10T13:05:59.576Z,26.00
2019-06-10T13:08:53.114Z,26.00
2019-06-10T13:11:27.762Z,25.90
2019-06-10T13:17:44.155Z,26.40
2019-06-10T13:21:22.824Z,26.40
2019-06-10T13:23:54.165Z,26.50
2019-06-10T13:27:15.880Z,26.70
2019-06-10T13:33:28.342Z,26.80
2019-06-10T13:36:26.249Z,26.90
2019-06-10T13:38:59.147Z,27.00
2019-06-10T13:41:43.862Z,27.00
2019-06-10T13:44:40.053Z,27.10
2019-06-10T13:47:26.636Z,26.90
2019-06-10T13:50:45.340Z,26.80
2019-06-10T13:53:18.618Z,26.80
2019-06-10T13:56:27.077Z,26.60
2019-06-10T13:59:27.440Z,26.50
2019-06-10T14:02:28.835Z,26.50
2019-06-10T14:05:08.294Z,26.60
2019-06-10T14:08:15.306Z,26.80
2019-06-10T14:11:33.893Z,26.70
2019-06-10T14:14:05.814Z,26.90
2019-06-10T14:17:32.910Z,26.90
2019-06-10T14:20:03.804Z,26.90
2019-06-10T14:26:17.323Z,26.50
2019-06-10T14:28:53.223Z,26.30
2019-06-10T14:35:09.593Z,26.00
2019-06-10T14:41:23.086Z,25.80
2019-06-10T14:44:00.513Z,25.60
2019-06-10T14:47:39.539Z,25.50
2019-06-10T14:50:14.328Z,25.40
2019-06-10T14:53:03.425Z,25.30
2019-06-10T14:55:53.546Z,25.30
2019-06-10T14:58:25.022Z,25.20
2019-06-10T15:01:09.154Z,25.10
2019-06-10T15:03:54.265Z,25.00
2019-06-10T15:06:48.623Z,25.00
2019-06-10T15:09:23.920Z,25.00
2019-06-10T15:12:24.367Z,25.00
2019-06-10T15:15:04.733Z,25.10
2019-06-10T15:24:02.984Z,25.20
2019-06-10T15:27:19.246Z,25.20
2019-06-10T15:29:53.335Z,25.20
2019-06-10T15:32:43.548Z,25.10
2019-06-10T15:36:02.141Z,25.10
2019-06-10T15:39:05.293Z,25.10
2019-06-10T15:41:42.861Z,25.30
2019-06-10T15:45:02.297Z,25.40
2019-06-10T15:52:15.518Z,25.60
2019-06-10T15:56:08.938Z,25.70
2019-06-10T15:58:42.930Z,25.60
2019-06-10T16:01:22.482Z,25.40
2019-06-10T16:07:32.578Z,25.30
2019-06-10T16:10:29.449Z,25.40
2019-06-10T16:13:24.933Z,25.40
2019-06-10T16:19:53.321Z,25.50
2019-06-10T16:26:39.100Z,25.50
2019-06-10T16:29:12.135Z,25.40
2019-06-10T16:35:32.141Z,25.30
2019-06-10T16:38:12.594Z,25.20
2019-06-10T16:40:53.913Z,25.10
2019-06-10T16:43:34.418Z,25.00
2019-06-10T16:46:42.911Z,24.90
2019-06-10T16:49:56.941Z,24.80
2019-06-10T16:52:34.255Z,24.60
2019-06-10T16:58:45.528Z,23.90
2019-06-10T17:01:42.752Z,23.60
2019-06-10T17:04:25.418Z,23.40
2019-06-10T17:07:02.264Z,23.20
2019-06-10T17:13:04.838Z,23.00
2019-06-10T17:15:38.625Z,23.00
2019-06-10T17:18:24.907Z,22.90
2019-06-10T17:21:16.993Z,22.90
2019-06-10T17:23:52.478Z,22.90
2019-06-10T17:26:33.251Z,22.70
2019-06-10T17:29:03.430Z,22.50
2019-06-10T17:31:43.318Z,22.20
2019-06-10T17:37:54.675Z,22.00
2019-06-10T17:45:10.086Z,21.70
2019-06-10T17:47:48.763Z,21.50
2019-06-10T17:50:21.897Z,21.20
2019-06-10T17:52:54.880Z,21.00
2019-06-10T17:55:26.548Z,20.90
2019-06-10T17:57:57.962Z,20.80
2019-06-10T18:00:29.388Z,20.80
2019-06-10T18:03:03.695Z,20.90
2019-06-10T18:05:33.706Z,20.80
2019-06-10T18:08:04.837Z,20.60
2019-06-10T18:10:44.220Z,20.50
2019-06-10T18:13:16.870Z,20.50
2019-06-10T18:15:47.932Z,20.40
2019-06-10T18:18:19.172Z,20.50
2019-06-10T18:20:53.301Z,20.50
2019-06-10T18:23:24.922Z,20.40
2019-06-10T18:25:56.320Z,20.30
2019-06-10T18:28:27.283Z,20.20
2019-06-10T18:31:01.066Z,20.30
2019-06-10T18:33:34.614Z,20.30
2019-06-10T18:36:06.397Z,20.20
2019-06-10T18:38:37.371Z,20.30
2019-06-10T18:41:08.295Z,20.30
2019-06-10T18:43:40.058Z,20.40
2019-06-10T18:46:12.705Z,20.40
2019-06-10T18:48:43.572Z,20.30
2019-06-10T18:51:16.183Z,20.30
2019-06-10T18:53:47.441Z,20.30
2019-06-10T18:56:17.878Z,20.30
2019-06-10T18:58:48.843Z,20.20
2019-06-10T19:01:22.519Z,20.00
2019-06-10T19:03:53.446Z,20.00
2019-06-10T19:06:27.157Z,20.10
2019-06-10T19:08:58.276Z,20.10
2019-06-10T19:11:50.699Z,20.00
2019-06-10T19:14:23.671Z,20.00
2019-06-10T19:16:54.823Z,19.90
2019-06-10T19:19:29.826Z,19.90
2019-06-10T19:22:08.966Z,19.90
2019-06-10T19:24:40.172Z,19.90
2019-06-10T19:27:13.733Z,19.80
2019-06-10T19:29:50.803Z,19.80
2019-06-10T19:32:17.542Z,19.70
2019-06-10T19:35:08.724Z,19.60
2019-06-10T19:37:48.963Z,19.50
2019-06-10T19:40:26.443Z,19.40
2019-06-10T19:42:58.319Z,19.40
2019-06-10T19:45:32.485Z,19.30
2019-06-10T19:48:03.712Z,19.40
2019-06-10T19:50:36.385Z,19.30
2019-06-10T19:53:08.617Z,19.30
2019-06-10T19:55:41.621Z,19.30
2019-06-10T19:58:13.386Z,19.10
2019-06-10T20:00:50.885Z,19.00
2019-06-10T20:03:17.606Z,19.00
2019-06-10T20:05:48.867Z,18.90
2019-06-10T20:08:22.535Z,19.00
2019-06-10T20:10:56.837Z,19.00
2019-06-10T20:13:27.354Z,18.90
2019-06-10T20:16:03.358Z,18.90
2019-06-10T20:18:34.111Z,18.80
2019-06-10T20:21:06.052Z,18.80
2019-06-10T20:23:37.401Z,18.90
2019-06-10T20:26:08.774Z,19.00
2019-06-10T20:28:41.283Z,19.00
2019-06-10T20:31:12.732Z,19.00
2019-06-10T20:33:43.892Z,19.00
2019-06-10T20:36:21.890Z,19.00
2019-06-10T20:38:48.799Z,19.00
2019-06-10T20:41:19.380Z,19.00
2019-06-10T20:43:55.504Z,18.90
2019-06-10T20:46:26.451Z,18.80
2019-06-10T20:48:57.263Z,18.70
2019-06-10T20:51:28.517Z,18.60
2019-06-10T20:54:02.684Z,18.50
2019-06-10T20:56:33.772Z,18.40
2019-06-10T20:59:04.782Z,18.30
2019-06-10T21:01:35.391Z,18.40
2019-06-10T21:04:06.282Z,18.30
2019-06-10T21:06:39.228Z,18.30
2019-06-10T21:09:13.151Z,18.20
2019-06-10T21:11:46.390Z,18.20
2019-06-10T21:14:15.405Z,18.20
2019-06-10T21:16:46.452Z,18.20
2019-06-10T21:19:16.887Z,18.20
2019-06-10T21:21:49.539Z,18.10
2019-06-10T21:24:19.891Z,18.10
2019-06-10T21:26:54.287Z,18.10
2019-06-10T21:29:22.725Z,18.00
2019-06-10T21:31:54.773Z,18.00
2019-06-10T21:34:26.118Z,18.00
2019-06-10T21:36:56.592Z,17.90
2019-06-10T21:39:27.098Z,17.80
2019-06-10T21:41:58.078Z,17.80
2019-06-10T21:44:28.421Z,17.80
2019-06-10T21:46:58.668Z,17.80
2019-06-10T21:49:29.450Z,17.80
2019-06-10T21:51:59.849Z,17.70
2019-06-10T21:54:30.152Z,17.70
2019-06-10T21:57:02.648Z,17.70
2019-06-10T21:59:32.615Z,17.70
2019-06-10T22:02:07.864Z,17.70
2019-06-10T22:04:38.311Z,17.70
2019-06-10T22:07:32.912Z,17.60
2019-06-10T22:10:12.774Z,17.60
2019-06-10T22:12:50.772Z,17.60
2019-06-10T22:15:22.577Z,17.60
2019-06-10T22:17:54.794Z,17.60
2019-06-10T22:20:32.454Z,17.60
2019-06-10T22:23:28.447Z,17.50
2019-06-10T22:26:04.882Z,17.50
2019-06-10T22:28:39.034Z,17.50
2019-06-10T22:31:19.826Z,17.50
2019-06-10T22:33:55.968Z,17.50
2019-06-10T22:36:32.674Z,17.50
2019-06-10T22:39:13.681Z,17.40
2019-06-10T22:41:53.719Z,17.50
2019-06-10T22:44:33.243Z,17.50
2019-06-10T22:47:03.806Z,17.50
2019-06-10T22:49:43.204Z,17.50
2019-06-10T22:52:26.255Z,17.50
2019-06-10T22:54:58.364Z,17.40
2019-06-10T22:57:38.737Z,17.50
2019-06-10T23:00:13.081Z,17.40
2019-06-10T23:02:43.874Z,17.40
2019-06-10T23:05:17.237Z,17.30
2019-06-10T23:07:48.187Z,17.30
2019-06-10T23:10:25.686Z,17.20
2019-06-10T23:13:02.952Z,17.20
2019-06-10T23:15:32.640Z,17.20
2019-06-10T23:18:03.451Z,17.20
2019-06-10T23:23:26.068Z,17.20
2019-06-10T23:25:56.314Z,17.30
2019-06-10T23:28:26.710Z,17.30
2019-06-10T23:30:58.871Z,17.30
2019-06-10T23:33:29.338Z,17.20
2019-06-10T23:36:09.168Z,17.20
2019-06-10T23:38:48.897Z,17.20
2019-06-10T23:41:22.158Z,17.30
2019-06-10T23:43:52.910Z,17.30
2019-06-10T23:46:23.901Z,17.30
2019-06-10T23:48:55.372Z,17.30
2019-06-10T23:51:26.056Z,17.20
2019-06-10T23:53:58.372Z,17.20
2019-06-10T23:56:28.246Z,17.20
2019-06-10T23:58:58.863Z,17.20
